Decoded Metar for EIME (CASEMENT in IRELAND) (IATA:N/A) | Meteo·Mobile Aviation Weather
aviador You're here:

EIME Decoded Metar

CASEMENT in IRELAND
Report Time2019-02-22 20:00:00
UTC Time2019-02-22 20:15:48
Flight Rules vfr VFR
Wind190° at 14 kt
W.Decomp.*RWY 23: 11.5 kt HW 8 kt LCW
RWY 11: 1.2 kt HW 13.9 kt RCW
W.Rank190° ranks 10
Current wind is above 190° avg. (10.9)
Visibility9999 m
Phenomena:N/A
Clouds:Few 018 Hf
Scattered 150 Hf
Broken 240 Hf
Expected CloudBase > 2,800 ft AGL from Temp-Dew spread
Ceiling24,000 ft
Temp12°C (ISA -2)
Dew Point05°C (63% RH)
AAT5.9°C
QNH1025 hPa
Density Alt-266 ft
Elevation305 ft
Report Wrong Elevation
Raw Report
METAR EIME 222000Z 19014KT 9999 FEW018 SCT150 BKN240 12/05 Q1025=

Extra information for EIME:More info

Metar Taf Metar & Taf Last 4 Metars F.Rules Stats Wind Profile Meteogram Temp Stats Airport Information Weather charts Add Link Nearby VenuesMetar ALERT Operation Metar Decoded Social comments